Time;durP1;ratioP1;P1;durP2;ratioP2;P2;SDS_P1;SDS_P2;PMS_P1;PMS_P2;Temp;Humidity;BMP_temperature;BMP_pressure;BME280_temperature;BME280_humidity;BME280_pressure;Samples;Min_cycle;Max_cycle;Signal;HPM_P1;HPM_P2
2021/05/11 00:01:54;;;;;;;7.03;2.23;;;18.20;99.90;;;;;;5077829;28;20439;-86
2021/05/11 00:04:21;;;;;;;2.87;2.67;;;;;;;;;;5077136;28;20473;-86
2021/05/11 00:06:47;;;;;;;2.63;2.33;;;18.40;99.90;;;;;;5077015;28;20954;-86
2021/05/11 00:09:13;;;;;;;3.73;3.37;;;18.50;99.90;;;;;;5080099;28;20456;-85
2021/05/11 00:11:39;;;;;;;2.57;2.37;;;18.40;99.90;;;;;;5076639;28;20984;-85
2021/05/11 00:14:06;;;;;;;2.40;2.20;;;18.40;99.90;;;;;;5078589;28;20948;-85
2021/05/11 00:16:33;;;;;;;2.30;2.20;;;18.50;99.90;;;;;;5080454;28;20530;-86
2021/05/11 00:19:01;;;;;;;3.90;2.73;;;17.90;99.90;;;;;;5081273;28;20831;-86
2021/05/11 00:21:27;;;;;;;3.73;2.07;;;17.80;99.90;;;;;;5080577;28;20453;-87
2021/05/11 00:23:53;;;;;;;2.50;2.30;;;17.00;99.90;;;;;;5081169;28;20458;-86
2021/05/11 00:26:19;;;;;;;2.70;2.50;;;18.10;99.90;;;;;;5081852;28;20451;-86
2021/05/11 00:28:46;;;;;;;2.63;2.30;;;18.10;99.90;;;;;;5100725;28;20469;-87
2021/05/11 00:31:13;;;;;;;4.17;3.23;;;18.30;99.90;;;;;;5101277;28;20526;-86
2021/05/11 00:33:39;;;;;;;2.67;2.47;;;17.40;99.90;;;;;;5101426;28;20442;-87
2021/05/11 00:36:05;;;;;;;2.80;2.50;;;18.00;99.90;;;;;;5101746;28;20435;-86
2021/05/11 00:38:32;;;;;;;2.93;2.40;;;18.20;99.90;;;;;;5101929;28;20474;-87
2021/05/11 00:40:58;;;;;;;7.07;2.43;;;18.40;99.90;;;;;;5102424;28;20447;-86
2021/05/11 00:43:25;;;;;;;7.63;2.80;;;19.30;99.90;;;;;;5101706;28;20454;-86
2021/05/11 00:45:51;;;;;;;6.63;2.70;;;18.40;99.90;;;;;;5101463;28;20460;-86
2021/05/11 00:48:18;;;;;;;4.73;2.30;;;17.70;99.90;;;;;;5087985;28;20474;-86
2021/05/11 00:50:44;;;;;;;2.97;2.77;;;18.60;99.90;;;;;;5096980;28;20457;-87
2021/05/11 00:53:10;;;;;;;2.70;2.33;;;17.70;99.90;;;;;;5098592;28;20447;-86
2021/05/11 00:55:36;;;;;;;3.00;2.77;;;17.60;99.90;;;;;;5099200;28;20437;-86
2021/05/11 00:58:02;;;;;;;2.40;2.20;;;17.90;99.90;;;;;;5101610;28;20459;-86
2021/05/11 01:00:30;;;;;;;2.90;2.70;;;17.60;99.90;;;;;;5102256;28;20422;-86
2021/05/11 01:02:56;;;;;;;2.50;2.37;;;17.40;99.90;;;;;;5102004;28;20498;-86
2021/05/11 01:05:23;;;;;;;2.60;2.40;;;17.60;99.90;;;;;;5101917;28;20502;-86
2021/05/11 01:07:49;;;;;;;2.87;2.10;;;17.20;99.90;;;;;;5101149;28;20451;-86
2021/05/11 01:10:15;;;;;;;2.70;2.50;;;17.70;99.90;;;;;;5101615;28;20441;-86
2021/05/11 01:12:42;;;;;;;2.77;2.57;;;17.80;99.90;;;;;;5101805;28;20434;-86
2021/05/11 01:15:09;;;;;;;3.60;2.60;;;17.60;99.90;;;;;;5101144;28;20462;-85
2021/05/11 01:17:37;;;;;;;3.77;2.80;;;;;;;;;;5100293;28;20446;-86
2021/05/11 01:20:05;;;;;;;2.93;2.63;;;17.70;99.90;;;;;;5095864;28;20475;-86
2021/05/11 01:23:02;;;;;;;2.40;2.20;;;17.50;99.90;;;;;;5094976;28;20462;-85
2021/05/11 01:25:30;;;;;;;2.77;2.57;;;17.20;99.90;;;;;;5098439;28;20478;-85
2021/05/11 01:28:09;;;;;;;12.20;3.00;;;17.30;99.90;;;;;;5087421;28;20477;-85
2021/05/11 01:44:53;;;;;;;5.07;3.00;;;17.10;99.90;;;;;;5083321;28;20402;-85
2021/05/11 01:47:47;;;;;;;3.30;3.00;;;16.40;99.90;;;;;;5082118;28;20605;-85
2021/05/11 01:50:19;;;;;;;4.43;3.50;;;17.40;99.90;;;;;;5082114;28;20436;-85
2021/05/11 01:53:09;;;;;;;4.03;2.90;;;17.40;99.90;;;;;;5082574;28;20977;-86
2021/05/11 01:55:51;;;;;;;3.93;3.63;;;17.20;99.90;;;;;;5081899;28;20451;-86
2021/05/11 02:23:22;;;;;;;3.80;3.50;;;16.90;99.90;;;;;;5103103;28;20403;-83
2021/05/11 02:25:49;;;;;;;6.37;3.70;;;;;;;;;;5108921;28;20482;-82
2021/05/11 02:28:16;;;;;;;3.73;3.30;;;;;;;;;;5104613;28;20456;-83
2021/05/11 02:30:43;;;;;;;3.97;3.67;;;16.80;99.90;;;;;;5105876;28;20447;-84
2021/05/11 02:33:10;;;;;;;4.57;4.17;;;;;;;;;;5104421;28;20448;-84
2021/05/11 02:35:36;;;;;;;8.90;3.60;;;17.60;99.90;;;;;;5105885;28;20933;-83
2021/05/11 02:38:02;;;;;;;3.90;3.60;;;17.50;99.90;;;;;;5107891;28;20468;-83
2021/05/11 02:40:29;;;;;;;4.93;4.43;;;16.40;99.90;;;;;;5104429;28;20439;-83
2021/05/11 02:42:59;;;;;;;3.83;3.53;;;16.70;99.90;;;;;;5107418;28;20454;-83
2021/05/11 02:45:27;;;;;;;4.90;4.13;;;16.70;99.90;;;;;;5101182;28;20475;-82
2021/05/11 02:47:53;;;;;;;4.23;3.70;;;;;;;;;;5101755;28;20444;-83
2021/05/11 02:50:21;;;;;;;5.90;4.07;;;16.90;99.90;;;;;;5100482;28;20444;-83
2021/05/11 02:52:48;;;;;;;5.77;4.73;;;;;;;;;;5100309;28;20815;-83
2021/05/11 02:55:14;;;;;;;5.77;4.33;;;16.90;99.90;;;;;;5099344;28;20470;-83
2021/05/11 02:57:41;;;;;;;6.20;3.30;;;;;;;;;;5099229;28;20436;-83
2021/05/11 03:00:10;;;;;;;3.90;3.57;;;16.90;99.90;;;;;;5100612;28;20483;-83
2021/05/11 03:02:37;;;;;;;5.73;4.20;;;17.00;99.90;;;;;;5101097;28;20473;-84
2021/05/11 03:05:04;;;;;;;4.23;3.83;;;16.80;99.90;;;;;;5100834;28;20479;-84
2021/05/11 03:07:30;;;;;;;6.70;3.93;;;16.80;99.90;;;;;;5100065;28;20448;-81
2021/05/11 03:09:57;;;;;;;4.20;3.90;;;16.70;99.90;;;;;;5101819;28;20518;-81
2021/05/11 03:12:23;;;;;;;9.50;4.67;;;;;;;;;;5105315;28;20441;-83
2021/05/11 03:14:49;;;;;;;8.87;6.97;;;16.70;99.90;;;;;;5104567;28;20511;-82
2021/05/11 03:17:16;;;;;;;5.17;4.27;;;15.50;99.90;;;;;;5096971;28;20466;-82
2021/05/11 03:19:43;;;;;;;5.70;4.30;;;16.30;99.90;;;;;;5098363;28;20506;-82
2021/05/11 03:22:09;;;;;;;5.40;4.20;;;16.60;99.90;;;;;;5099232;28;20463;-81
2021/05/11 03:24:37;;;;;;;5.63;5.13;;;16.60;99.90;;;;;;5099495;28;20587;-81
2021/05/11 03:27:04;;;;;;;5.63;4.47;;;16.60;99.90;;;;;;5100517;28;20453;-82
2021/05/11 03:29:30;;;;;;;4.27;3.80;;;16.60;99.90;;;;;;5101060;28;20469;-83
2021/05/11 03:31:56;;;;;;;4.80;4.07;;;17.10;99.90;;;;;;5112375;28;20424;-81
2021/05/11 03:34:23;;;;;;;6.50;4.43;;;16.60;99.90;;;;;;5117577;28;20477;-82
2021/05/11 03:36:49;;;;;;;6.37;5.80;;;16.70;99.90;;;;;;5117897;28;20439;-81
2021/05/11 03:39:15;;;;;;;6.00;5.40;;;15.90;99.90;;;;;;5118062;28;20494;-81
2021/05/11 03:41:45;;;;;;;5.60;5.10;;;16.50;99.90;;;;;;5114896;28;20440;-82
2021/05/11 03:44:13;;;;;;;6.73;6.03;;;15.80;99.90;;;;;;5099142;28;20934;-82
2021/05/11 03:46:40;;;;;;;11.40;5.70;;;16.40;99.90;;;;;;5099758;28;20443;-80
2021/05/11 03:49:07;;;;;;;5.90;5.40;;;16.00;99.90;;;;;;5102345;28;20456;-81
2021/05/11 03:51:34;;;;;;;8.60;5.80;;;16.30;99.90;;;;;;5113137;28;20430;-82
2021/05/11 03:54:01;;;;;;;9.00;6.47;;;15.90;99.90;;;;;;5102799;28;20436;-80
2021/05/11 03:56:27;;;;;;;6.60;5.13;;;15.80;99.90;;;;;;5098387;28;20479;-80
2021/05/11 03:58:54;;;;;;;6.40;5.17;;;16.00;99.90;;;;;;5099333;28;20471;-81
2021/05/11 04:01:21;;;;;;;5.83;4.53;;;15.70;99.90;;;;;;5100258;28;20466;-80
2021/05/11 04:03:47;;;;;;;5.83;5.00;;;15.50;99.90;;;;;;5099003;28;20478;-83
2021/05/11 04:06:13;;;;;;;6.77;6.27;;;16.50;99.90;;;;;;5110694;28;20444;-79
2021/05/11 04:08:44;;;;;;;8.30;5.90;;;16.20;99.90;;;;;;5108284;28;20465;-82
2021/05/11 04:11:23;;;;;;;6.13;5.53;;;16.10;99.90;;;;;;5100419;28;20438;-82
2021/05/11 04:14:00;;;;;;;8.07;6.70;;;16.20;99.90;;;;;;5111087;28;20422;-82
2021/05/11 04:16:27;;;;;;;12.57;6.57;;;16.10;99.90;;;;;;5113648;28;20458;-81
2021/05/11 04:18:54;;;;;;;6.17;5.60;;;16.20;99.90;;;;;;5117143;28;20494;-80
2021/05/11 04:21:21;;;;;;;10.43;6.67;;;15.60;99.90;;;;;;5116278;28;20439;-80
2021/05/11 04:23:49;;;;;;;5.40;5.00;;;16.00;99.90;;;;;;5115416;28;20787;-80
2021/05/11 04:26:16;;;;;;;22.23;16.73;;;16.40;99.90;;;;;;5116266;28;20453;-80
2021/05/11 04:28:42;;;;;;;10.10;6.40;;;16.00;99.90;;;;;;5114671;28;20464;-82
2021/05/11 04:31:09;;;;;;;7.07;5.80;;;15.60;99.90;;;;;;5116147;28;20454;-81
2021/05/11 04:33:35;;;;;;;7.63;5.70;;;15.90;99.90;;;;;;5116675;28;20448;-81
2021/05/11 04:36:01;;;;;;;8.90;6.40;;;16.80;99.90;;;;;;5115418;28;20452;-81
2021/05/11 04:38:28;;;;;;;10.07;6.30;;;;;;;;;;5115389;28;20448;-82
2021/05/11 04:40:54;;;;;;;7.90;6.60;;;16.50;99.90;;;;;;5113539;28;20501;-83
2021/05/11 04:43:24;;;;;;;9.63;6.90;;;16.70;99.90;;;;;;5112756;28;20423;-82
2021/05/11 04:45:51;;;;;;;7.00;6.03;;;16.50;99.90;;;;;;5112444;28;20530;-83
2021/05/11 04:48:17;;;;;;;9.30;7.20;;;16.50;99.90;;;;;;5110275;28;20842;-83
2021/05/11 04:50:43;;;;;;;8.70;7.50;;;17.20;99.90;;;;;;5101597;28;20448;-83
2021/05/11 04:53:10;;;;;;;10.03;6.40;;;16.70;99.90;;;;;;5101305;28;20451;-83
2021/05/11 04:55:37;;;;;;;9.53;7.10;;;;;;;;;;5102722;28;20524;-83
2021/05/11 04:58:03;;;;;;;7.53;6.83;;;16.90;99.90;;;;;;5100617;28;20529;-81
2021/05/11 05:00:30;;;;;;;12.03;6.87;;;16.90;99.90;;;;;;5103310;28;20439;-83
2021/05/11 05:03:00;;;;;;;7.00;6.40;;;17.20;99.90;;;;;;5105300;28;20448;-82
2021/05/11 05:05:26;;;;;;;7.60;6.23;;;16.40;99.90;;;;;;5105728;28;20429;-83
2021/05/11 05:07:53;;;;;;;6.70;6.03;;;;;;;;;;5107105;28;20442;-83
2021/05/11 05:10:19;;;;;;;6.97;5.93;;;17.00;99.90;;;;;;5103342;28;20444;-83
2021/05/11 05:12:45;;;;;;;7.77;6.10;;;17.20;99.90;;;;;;5108569;28;20452;-82
2021/05/11 05:15:13;;;;;;;6.70;6.00;;;17.20;99.90;;;;;;5103637;28;20488;-82
2021/05/11 05:17:40;;;;;;;7.30;6.60;;;17.10;99.90;;;;;;5103620;28;20445;-82
2021/05/11 05:20:07;;;;;;;8.10;6.70;;;17.40;99.90;;;;;;5102738;28;20441;-83
2021/05/11 05:22:33;;;;;;;13.50;7.07;;;17.10;99.90;;;;;;5103367;28;20924;-83
2021/05/11 05:25:07;;;;;;;9.30;6.70;;;17.00;99.90;;;;;;5104190;28;20494;-83
2021/05/11 05:27:39;;;;;;;6.90;5.00;;;17.00;99.90;;;;;;5110849;28;20480;-83
2021/05/11 05:30:06;;;;;;;8.60;6.37;;;17.20;99.90;;;;;;5102402;28;20459;-83
2021/05/11 05:32:32;;;;;;;8.73;6.60;;;17.40;99.90;;;;;;5104629;28;20440;-84
2021/05/11 05:35:00;;;;;;;6.33;5.73;;;17.50;99.90;;;;;;5104380;28;20478;-84
2021/05/11 05:37:26;;;;;;;7.80;6.10;;;;;;;;;;5104796;28;20452;-87
2021/05/11 05:39:56;;;;;;;11.93;7.00;;;17.70;99.90;;;;;;5105573;28;20509;-86
2021/05/11 05:42:25;;;;;;;11.87;7.23;;;17.80;99.90;;;;;;5106890;28;20505;-86
2021/05/11 05:44:51;;;;;;;7.67;6.17;;;17.90;99.90;;;;;;5105840;28;20505;-86
2021/05/11 05:47:19;;;;;;;7.03;6.13;;;17.50;99.90;;;;;;5111963;28;20446;-88
2021/05/11 05:49:55;;;;;;;7.43;5.77;;;17.90;99.90;;;;;;5117495;28;20486;-86
2021/05/11 05:52:34;;;;;;;10.50;8.50;;;18.30;99.90;;;;;;5117804;28;20443;-88
2021/05/11 05:55:01;;;;;;;11.53;6.70;;;;;;;;;;5119909;28;20457;-88
2021/05/11 05:57:27;;;;;;;8.00;6.20;;;;;;;;;;5118960;28;20540;-83
2021/05/11 05:59:54;;;;;;;6.43;5.83;;;;;;;;;;5120025;28;20453;-86
2021/05/11 06:02:22;;;;;;;6.23;5.60;;;;;;;;;;5120359;28;20454;-87
2021/05/11 06:04:49;;;;;;;8.30;6.50;;;18.40;99.90;;;;;;5117762;28;20458;-88
2021/05/11 06:07:15;;;;;;;7.47;6.23;;;;;;;;;;5111768;28;20446;-87
2021/05/11 06:09:42;;;;;;;6.37;5.77;;;18.80;99.90;;;;;;5106164;28;20520;-87
2021/05/11 06:12:15;;;;;;;6.90;6.17;;;18.70;99.90;;;;;;5112732;28;20423;-88
2021/05/11 06:14:49;;;;;;;9.50;7.03;;;;;;;;;;5107605;28;20465;-88
2021/05/11 06:17:20;;;;;;;7.93;6.20;;;;;;;;;;5110636;28;20452;-87
2021/05/11 06:19:48;;;;;;;6.27;5.80;;;18.80;99.90;;;;;;5106449;28;20459;-85
2021/05/11 06:22:15;;;;;;;5.97;5.40;;;18.80;99.90;;;;;;5105882;28;20458;-85
2021/05/11 06:24:43;;;;;;;7.70;6.90;;;18.80;99.90;;;;;;5105214;28;20929;-86
2021/05/11 06:27:11;;;;;;;22.27;7.80;;;17.80;99.90;;;;;;5104587;28;20447;-86
2021/05/11 06:29:39;;;;;;;6.87;6.17;;;19.70;99.90;;;;;;5104399;28;20467;-86
2021/05/11 06:32:05;;;;;;;7.13;5.63;;;20.80;99.90;;;;;;5113244;28;20440;-87
2021/05/11 06:34:32;;;;;;;6.20;5.60;;;19.40;99.90;;;;;;5109318;28;20447;-87
2021/05/11 06:36:58;;;;;;;10.80;6.30;;;;;;;;;;5103113;28;20444;-87
2021/05/11 06:39:25;;;;;;;6.77;5.97;;;;;;;;;;5103306;28;20460;-86
2021/05/11 06:41:54;;;;;;;7.50;6.17;;;19.60;99.90;;;;;;5103511;28;20444;-87
2021/05/11 06:44:28;;;;;;;7.60;6.50;;;19.50;99.90;;;;;;5102442;28;20527;-87
2021/05/11 06:47:26;;;;;;;7.13;6.20;;;;;;;;;;5103667;28;20424;-87
2021/05/11 06:50:13;;;;;;;5.73;4.97;;;;;;;;;;5106264;28;20459;-87
2021/05/11 06:52:56;;;;;;;7.73;6.27;;;;;;;;;;5107018;28;20428;-86
2021/05/11 06:55:22;;;;;;;7.97;5.93;;;20.30;99.90;;;;;;5106734;28;20552;-86
2021/05/11 06:57:50;;;;;;;8.50;6.20;;;;;;;;;;5103239;28;20452;-88
2021/05/11 07:00:16;;;;;;;5.77;5.07;;;20.60;99.90;;;;;;5103083;28;20439;-87
2021/05/11 07:02:43;;;;;;;7.17;5.83;;;;;;;;;;5107098;28;20452;-85
2021/05/11 07:05:26;;;;;;;7.40;5.40;;;20.90;99.90;;;;;;5108232;28;20447;-85
2021/05/11 07:08:04;;;;;;;8.60;6.17;;;20.90;99.90;;;;;;5108654;28;20443;-86
2021/05/11 07:10:33;;;;;;;9.07;5.00;;;;;;;;;;5109476;28;20451;-85
2021/05/11 07:13:13;;;;;;;6.60;4.60;;;;;;;;;;5110278;28;20455;-85
2021/05/11 07:15:42;;;;;;;8.47;5.60;;;20.90;99.90;;;;;;5106740;28;20514;-85
2021/05/11 07:18:13;;;;;;;7.33;5.80;;;21.00;99.90;;;;;;5110160;28;20467;-86
2021/05/11 07:20:41;;;;;;;7.83;5.80;;;21.10;99.90;;;;;;5110024;28;20445;-87
2021/05/11 07:23:08;;;;;;;5.27;4.73;;;;;;;;;;5111320;28;20859;-85
2021/05/11 07:25:40;;;;;;;4.70;4.30;;;;;;;;;;5110234;28;20474;-85
2021/05/11 07:28:34;;;;;;;6.37;5.77;;;;;;;;;;5109860;28;20463;-87
2021/05/11 07:31:03;;;;;;;6.87;6.27;;;21.00;99.90;;;;;;5109604;28;20543;-86
2021/05/11 07:33:32;;;;;;;8.23;5.50;;;20.50;99.90;;;;;;5109410;28;20501;-86
2021/05/11 07:35:59;;;;;;;6.10;5.53;;;;;;;;;;5113249;28;20468;-86
2021/05/11 07:38:28;;;;;;;6.77;6.07;;;21.10;99.90;;;;;;5110127;28;20487;-85
2021/05/11 07:40:55;;;;;;;11.20;9.77;;;21.10;99.90;;;;;;5105308;28;20458;-86
2021/05/11 07:43:25;;;;;;;8.60;7.70;;;;;;;;;;5107873;28;20470;-87
2021/05/11 07:46:19;;;;;;;9.80;7.87;;;;;;;;;;5112985;28;20444;-86
2021/05/11 07:49:08;;;;;;;15.83;7.23;;;21.60;99.90;;;;;;5107458;28;20456;-87
2021/05/11 08:05:23;;;;;;;6.80;6.20;;;;;;;;;;5019643;28;20452;-83
2021/05/11 08:10:56;;;;;;;7.47;4.87;;;22.50;99.90;;;;;;4998065;28;20464;-82
2021/05/11 08:16:10;;;;;;;7.57;6.40;;;22.10;99.90;;;;;;4998975;28;20550;-83
2021/05/11 08:18:43;;;;;;;9.23;6.93;;;21.80;99.90;;;;;;4999430;28;20534;-83
2021/05/11 08:29:31;;;;;;;6.37;5.77;;;22.40;99.90;;;;;;5000245;28;20454;-82
2021/05/11 08:31:58;;;;;;;9.80;5.40;;;22.70;99.90;;;;;;5000207;28;20458;-83
2021/05/11 08:34:24;;;;;;;5.63;5.10;;;23.00;99.90;;;;;;5001270;28;20508;-82
2021/05/11 08:36:51;;;;;;;8.43;5.60;;;23.00;99.90;;;;;;5003553;28;20477;-82
2021/05/11 08:39:17;;;;;;;7.10;6.00;;;23.20;99.90;;;;;;5003285;28;20462;-82
2021/05/11 08:41:43;;;;;;;5.73;5.23;;;22.40;99.90;;;;;;5003581;28;20445;-82
2021/05/11 08:44:14;;;;;;;10.63;9.40;;;23.20;99.90;;;;;;5004189;28;20451;-82
2021/05/11 08:46:43;;;;;;;7.10;5.77;;;23.50;99.90;;;;;;5004976;28;20484;-82
2021/05/11 08:49:13;;;;;;;6.53;5.87;;;23.70;99.90;;;;;;5005401;28;20478;-82
2021/05/11 08:51:50;;;;;;;9.97;7.00;;;23.80;99.90;;;;;;5004761;28;20463;-83
2021/05/11 08:54:25;;;;;;;6.47;5.77;;;23.80;99.90;;;;;;5004278;28;20562;-83
2021/05/11 09:00:13;;;;;;;10.93;6.37;;;23.80;99.90;;;;;;5007900;28;20466;-82
2021/05/11 09:06:01;;;;;;;6.87;6.17;;;24.90;99.90;;;;;;5016079;28;20468;-83
2021/05/11 09:08:44;;;;;;;5.93;5.43;;;22.70;99.90;;;;;;5017032;28;20490;-83
2021/05/11 09:25:18;;;;;;;20.53;12.43;;;23.90;99.90;;;;;;5014293;28;20419;-83
2021/05/11 09:27:51;;;;;;;6.73;6.07;;;23.90;99.90;;;;;;5013667;28;20443;-82
2021/05/11 09:30:37;;;;;;;22.83;15.73;;;24.10;99.90;;;;;;5012890;28;20469;-82
2021/05/11 09:33:17;;;;;;;15.80;13.00;;;24.20;99.90;;;;;;5010030;28;20444;-82
2021/05/11 09:56:07;;;;;;;31.67;20.57;;;24.40;99.90;;;;;;5003719;28;21057;-82
2021/05/11 09:58:52;;;;;;;18.87;15.10;;;24.70;99.90;;;;;;5005968;28;20476;-82
2021/05/11 10:10:24;;;;;;;6.57;5.97;;;24.20;99.90;;;;;;5004802;28;20453;-82
2021/05/11 10:41:58;;;;;;;9.60;7.80;;;25.30;99.90;;;;;;5003640;28;20446;-82
2021/05/11 10:46:25;;;;;;;9.97;6.33;;;25.40;99.90;;;;;;5003167;28;20497;-83
2021/05/11 10:48:17;;;;;;;6.27;5.87;;;25.40;99.90;;;;;;4999318;28;20447;-83
2021/05/11 10:50:46;;;;;;;6.13;5.27;;;25.50;99.90;;;;;;4997811;28;20454;-83
2021/05/11 10:53:38;;;;;;;6.53;5.87;;;25.50;99.90;;;;;;4998577;28;20749;-83
2021/05/11 10:56:51;;;;;;;15.03;6.53;;;25.60;99.90;;;;;;4998175;28;20526;-82
2021/05/11 10:59:24;;;;;;;8.00;6.10;;;25.60;99.90;;;;;;4999308;28;20511;-82
2021/05/11 11:01:56;;;;;;;11.00;6.83;;;25.70;99.90;;;;;;4999524;28;20468;-83
2021/05/11 11:04:24;;;;;;;7.93;5.67;;;25.80;99.90;;;;;;4999210;28;20486;-83
2021/05/11 11:07:05;;;;;;;6.70;5.60;;;25.80;99.90;;;;;;4999528;28;20440;-83
2021/05/11 11:09:32;;;;;;;8.47;5.63;;;25.30;99.90;;;;;;4999667;28;20699;-83
2021/05/11 11:12:00;;;;;;;6.97;6.37;;;25.80;99.90;;;;;;4999580;28;20453;-83
2021/05/11 11:14:35;;;;;;;6.10;5.57;;;25.80;99.90;;;;;;4999361;28;20444;-83
2021/05/11 11:17:04;;;;;;;7.13;6.60;;;26.10;99.90;;;;;;5000548;28;20468;-83
2021/05/11 11:19:31;;;;;;;6.20;5.60;;;26.10;99.90;;;;;;5000194;28;20473;-82
2021/05/11 11:23:32;;;;;;;7.30;6.57;;;26.20;99.90;;;;;;5000410;28;20448;-83
2021/05/11 11:24:47;;;;;;;7.07;6.47;;;26.10;99.90;;;;;;4999781;28;20444;-83
2021/05/11 11:27:13;;;;;;;9.13;6.40;;;26.20;99.90;;;;;;4998681;28;20909;-82
2021/05/11 11:29:42;;;;;;;6.43;5.80;;;;;;;;;;4999546;28;20237;-84
2021/05/11 11:32:09;;;;;;;8.00;6.13;;;26.30;99.90;;;;;;5006820;28;20524;-83
2021/05/11 11:34:36;;;;;;;8.67;6.10;;;;;;;;;;5009229;28;20452;-82
2021/05/11 11:37:04;;;;;;;6.60;6.00;;;26.70;99.90;;;;;;5014505;28;20481;-82
2021/05/11 11:39:35;;;;;;;7.70;6.90;;;26.50;99.90;;;;;;5006545;28;20476;-83
2021/05/11 11:42:03;;;;;;;9.27;8.37;;;26.40;99.90;;;;;;5003017;28;20436;-82
2021/05/11 11:44:33;;;;;;;10.77;9.27;;;26.60;99.90;;;;;;5003090;28;20456;-83
2021/05/11 11:47:01;;;;;;;8.43;7.73;;;26.40;99.90;;;;;;5003359;28;20449;-82
2021/05/11 11:49:29;;;;;;;31.37;24.47;;;26.20;99.90;;;;;;5001728;28;20479;-82
2021/05/11 11:51:59;;;;;;;16.20;13.20;;;26.30;99.90;;;;;;5005006;28;20453;-82
2021/05/11 11:54:32;;;;;;;38.27;31.27;;;;;;;;;;5000009;28;20447;-82
2021/05/11 12:00:00;;;;;;;6.17;5.60;;;26.30;99.90;;;;;;5000398;28;20467;-83
2021/05/11 12:02:26;;;;;;;6.90;4.67;;;26.30;99.90;;;;;;4998013;28;20449;-82
2021/05/11 12:04:53;;;;;;;6.57;5.97;;;26.30;99.90;;;;;;4999170;28;20460;-82
2021/05/11 12:07:21;;;;;;;6.40;5.30;;;26.50;99.90;;;;;;5002828;28;20986;-82
2021/05/11 12:09:48;;;;;;;7.70;5.60;;;;;;;;;;4999289;28;20495;-82
2021/05/11 12:12:16;;;;;;;7.40;6.70;;;26.50;99.90;;;;;;4998682;28;20942;-82
2021/05/11 12:14:42;;;;;;;7.10;6.40;;;;;;;;;;5001590;28;20452;-82
2021/05/11 12:17:09;;;;;;;7.53;4.93;;;26.60;99.90;;;;;;5002003;28;20562;-82
2021/05/11 12:19:36;;;;;;;7.13;6.47;;;26.60;99.90;;;;;;5009986;28;20470;-81
2021/05/11 12:22:04;;;;;;;7.40;5.83;;;26.80;99.90;;;;;;5014617;28;20433;-79
2021/05/11 12:24:34;;;;;;;5.57;5.13;;;26.80;99.90;;;;;;5014652;28;20441;-82
2021/05/11 12:27:14;;;;;;;6.63;5.97;;;26.90;99.90;;;;;;5014455;28;20461;-83
2021/05/11 12:29:58;;;;;;;8.97;5.70;;;26.90;99.90;;;;;;5013348;28;20469;-80
2021/05/11 12:32:24;;;;;;;4.63;4.33;;;26.90;99.90;;;;;;5014119;28;20417;-82
2021/05/11 12:35:07;;;;;;;9.50;8.53;;;26.80;99.90;;;;;;5007600;28;20449;-82
2021/05/11 12:37:48;;;;;;;7.53;6.93;;;26.80;99.90;;;;;;5005798;28;20424;-82
2021/05/11 12:40:28;;;;;;;10.93;7.87;;;26.80;99.90;;;;;;5003695;28;20461;-81
2021/05/11 12:42:56;;;;;;;13.60;8.93;;;26.70;99.90;;;;;;5009654;28;20459;-81
2021/05/11 12:45:23;;;;;;;9.87;7.47;;;26.70;99.90;;;;;;5005201;28;20467;-81
2021/05/11 12:47:52;;;;;;;8.37;6.47;;;26.70;99.90;;;;;;5002307;28;20460;-82
2021/05/11 12:50:21;;;;;;;6.30;5.80;;;26.70;99.90;;;;;;5003569;28;20471;-82
2021/05/11 12:52:50;;;;;;;11.37;6.60;;;26.90;99.90;;;;;;5000712;28;20445;-82
2021/05/11 12:55:50;;;;;;;8.23;6.80;;;26.90;99.90;;;;;;5002196;28;20520;-83
2021/05/11 12:58:30;;;;;;;9.50;8.10;;;27.40;99.90;;;;;;5002088;28;20926;-82
2021/05/11 13:01:01;;;;;;;7.80;6.70;;;27.10;99.90;;;;;;5001936;28;20429;-82
2021/05/11 13:03:47;;;;;;;6.50;5.90;;;27.10;99.90;;;;;;5000623;28;20437;-82
2021/05/11 13:09:26;;;;;;;26.13;20.07;;;27.40;99.90;;;;;;5003186;28;20546;-82
2021/05/11 13:17:38;;;;;;;25.63;17.70;;;27.40;99.90;;;;;;5005868;28;20468;-82
2021/05/11 13:20:18;;;;;;;16.87;13.60;;;27.20;99.90;;;;;;5003048;28;20482;-82
2021/05/11 13:22:55;;;;;;;7.03;6.33;;;27.40;99.90;;;;;;5006626;28;20502;-83
2021/05/11 13:25:30;;;;;;;8.67;5.83;;;27.50;99.90;;;;;;5005833;28;20483;-82
2021/05/11 13:28:05;;;;;;;7.40;5.43;;;27.50;99.90;;;;;;5012384;28;20450;-82
2021/05/11 13:30:38;;;;;;;8.70;7.03;;;27.50;99.90;;;;;;5010066;28;20511;-82
2021/05/11 13:33:15;;;;;;;7.60;6.80;;;27.60;99.90;;;;;;5008298;28;20440;-82
2021/05/11 13:35:41;;;;;;;6.83;6.23;;;27.70;99.90;;;;;;5016535;28;20474;-82
2021/05/11 13:38:07;;;;;;;7.17;6.47;;;28.00;99.90;;;;;;5010525;28;20454;-82
2021/05/11 13:40:35;;;;;;;13.77;9.13;;;27.60;99.90;;;;;;5008182;28;20806;-82
2021/05/11 13:43:01;;;;;;;10.80;7.57;;;27.40;99.90;;;;;;5012011;28;20444;-83
2021/05/11 13:45:28;;;;;;;9.03;7.20;;;27.70;99.90;;;;;;5013441;28;20757;-80
2021/05/11 13:48:02;;;;;;;11.60;9.63;;;27.60;99.90;;;;;;5010592;28;20559;-80
2021/05/11 13:50:36;;;;;;;9.50;7.90;;;;;;;;;;5009696;28;20450;-81
2021/05/11 13:53:02;;;;;;;13.70;10.97;;;27.50;99.90;;;;;;5010306;28;20449;-82
2021/05/11 13:55:36;;;;;;;6.07;5.30;;;27.50;99.90;;;;;;5010026;28;20542;-83
2021/05/11 14:03:34;;;;;;;24.97;16.23;;;;;;;;;;4978700;28;20456;-85
2021/05/11 14:06:00;;;;;;;87.83;58.60;;;27.60;99.90;;;;;;4978458;28;20459;-87
2021/05/11 14:08:27;;;;;;;15.17;10.80;;;;;;;;;;4973101;28;20519;-87
2021/05/11 14:10:53;;;;;;;11.60;9.87;;;27.50;99.90;;;;;;4978274;28;20479;-86
2021/05/11 14:13:20;;;;;;;11.73;8.70;;;;;;;;;;4974948;28;20440;-85
2021/05/11 14:15:47;;;;;;;6.10;5.60;;;;;;;;;;4974603;28;20499;-87
2021/05/11 14:18:13;;;;;;;11.47;9.40;;;;;;;;;;4977381;28;20457;-86
2021/05/11 14:20:40;;;;;;;7.57;6.87;;;;;;;;;;4974385;28;20480;-86
2021/05/11 14:23:06;;;;;;;8.77;7.97;;;;;;;;;;4976305;29;20445;-87
2021/05/11 14:25:33;;;;;;;8.90;7.27;;;;;;;;;;4976633;28;20442;-87
2021/05/11 14:27:59;;;;;;;8.27;6.90;;;;;;;;;;4977632;28;20466;-86
2021/05/11 14:30:26;;;;;;;8.83;7.67;;;27.90;99.90;;;;;;4977676;28;20460;-87
2021/05/11 14:32:52;;;;;;;9.73;6.87;;;27.80;99.90;;;;;;4977433;28;20441;-87
2021/05/11 14:35:19;;;;;;;7.80;6.83;;;27.30;99.90;;;;;;4977813;28;20457;-87
2021/05/11 14:37:45;;;;;;;7.50;5.97;;;;;;;;;;4976911;28;20458;-86
2021/05/11 14:40:14;;;;;;;7.43;5.10;;;27.70;99.90;;;;;;4977064;28;20451;-87
2021/05/11 14:42:40;;;;;;;6.50;4.90;;;;;;;;;;4976453;28;20473;-87
2021/05/11 14:45:08;;;;;;;7.73;6.87;;;27.90;99.90;;;;;;4975943;28;20453;-87
2021/05/11 14:47:36;;;;;;;8.60;6.87;;;27.90;99.90;;;;;;4971885;28;20457;-87
2021/05/11 14:50:03;;;;;;;6.57;5.90;;;27.90;99.90;;;;;;4970452;28;20456;-87
2021/05/11 14:52:30;;;;;;;8.20;6.40;;;;;;;;;;4974718;28;20437;-86
2021/05/11 14:54:56;;;;;;;7.03;5.83;;;;;;;;;;4967071;28;20451;-88
2021/05/11 14:57:23;;;;;;;7.80;5.73;;;27.80;99.90;;;;;;4968561;28;20485;-87
2021/05/11 14:59:49;;;;;;;10.20;6.43;;;;;;;;;;4973368;28;20484;-88
2021/05/11 15:02:16;;;;;;;8.77;5.90;;;;;;;;;;4984086;28;20453;-88
2021/05/11 15:04:44;;;;;;;6.30;5.67;;;28.00;99.90;;;;;;4983200;28;20476;-88
2021/05/11 15:07:10;;;;;;;8.53;7.70;;;27.90;99.90;;;;;;4983524;28;20453;-87
2021/05/11 15:09:36;;;;;;;8.63;7.80;;;28.10;99.90;;;;;;4982813;28;20546;-87
2021/05/11 15:12:02;;;;;;;10.80;8.60;;;;;;;;;;4984003;28;20947;-86
2021/05/11 15:14:29;;;;;;;7.43;6.53;;;28.20;99.90;;;;;;4989230;28;20454;-86
2021/05/11 15:17:07;;;;;;;10.10;7.53;;;;;;;;;;4990867;28;20491;-87
2021/05/11 15:19:34;;;;;;;11.90;6.50;;;;;;;;;;4990119;28;20469;-87
2021/05/11 15:22:01;;;;;;;8.00;6.37;;;;;;;;;;4987922;28;20453;-87
2021/05/11 15:24:28;;;;;;;9.50;6.20;;;;;;;;;;4985427;28;20460;-88
2021/05/11 15:26:59;;;;;;;16.47;14.63;;;;;;;;;;4985462;28;20498;-87
2021/05/11 15:29:25;;;;;;;24.60;19.03;;;;;;;;;;4982787;28;20473;-87
2021/05/11 15:31:51;;;;;;;10.50;7.50;;;27.20;99.90;;;;;;4982234;28;20452;-89
2021/05/11 15:34:18;;;;;;;13.63;6.03;;;27.60;99.90;;;;;;4984497;28;20833;-88
2021/05/11 15:36:44;;;;;;;10.00;6.53;;;28.70;99.90;;;;;;4982695;28;20489;-87
2021/05/11 15:39:11;;;;;;;10.87;8.73;;;28.50;99.90;;;;;;4980771;28;20842;-85
2021/05/11 15:41:37;;;;;;;9.23;8.27;;;27.20;99.90;;;;;;4980353;28;20465;-87
2021/05/11 15:44:04;;;;;;;10.67;9.57;;;27.80;99.90;;;;;;4978935;28;20448;-86
2021/05/11 15:46:30;;;;;;;7.10;6.60;;;28.40;99.90;;;;;;4978344;28;20665;-87
2021/05/11 15:48:56;;;;;;;8.13;7.17;;;;;;;;;;4980906;28;20456;-85
2021/05/11 15:51:22;;;;;;;7.70;7.10;;;28.10;99.90;;;;;;4981873;28;20468;-86
2021/05/11 15:53:49;;;;;;;9.03;6.80;;;;;;;;;;4982742;28;20444;-88
2021/05/11 15:56:16;;;;;;;7.03;6.33;;;27.90;99.90;;;;;;4982860;28;20550;-87
2021/05/11 15:58:43;;;;;;;6.87;6.20;;;;;;;;;;4984168;28;20453;-86
2021/05/11 16:01:10;;;;;;;9.40;7.40;;;;;;;;;;4990008;28;20445;-86
2021/05/11 16:03:36;;;;;;;8.00;7.23;;;27.60;99.90;;;;;;4987159;28;20793;-87
2021/05/11 16:06:03;;;;;;;7.50;6.80;;;;;;;;;;4990590;28;20478;-86